sensor_id;sensor_type;location;lat;lon;timestamp;temperature;humidity
3699;DHT22;1865;50.918;7.092;2022-08-19T00:00:30;22.80;55.10
3699;DHT22;1865;50.918;7.092;2022-08-19T00:02:55;22.80;55.20
3699;DHT22;1865;50.918;7.092;2022-08-19T00:05:22;22.80;55.00
3699;DHT22;1865;50.918;7.092;2022-08-19T00:07:49;22.70;55.10
3699;DHT22;1865;50.918;7.092;2022-08-19T00:10:15;22.70;55.50
3699;DHT22;1865;50.918;7.092;2022-08-19T00:12:44;22.60;55.50
3699;DHT22;1865;50.918;7.092;2022-08-19T00:15:14;22.60;55.40
3699;DHT22;1865;50.918;7.092;2022-08-19T00:17:42;22.50;55.60
3699;DHT22;1865;50.918;7.092;2022-08-19T00:20:09;22.50;55.60
3699;DHT22;1865;50.918;7.092;2022-08-19T00:22:36;22.50;55.80
3699;DHT22;1865;50.918;7.092;2022-08-19T00:25:04;22.40;55.90
3699;DHT22;1865;50.918;7.092;2022-08-19T00:27:30;22.50;55.70
3699;DHT22;1865;50.918;7.092;2022-08-19T00:29:55;22.40;55.60
3699;DHT22;1865;50.918;7.092;2022-08-19T00:32:21;22.50;55.50
3699;DHT22;1865;50.918;7.092;2022-08-19T00:34:47;22.50;55.30
3699;DHT22;1865;50.918;7.092;2022-08-19T00:37:13;22.30;55.70
3699;DHT22;1865;50.918;7.092;2022-08-19T00:39:38;22.30;55.70
3699;DHT22;1865;50.918;7.092;2022-08-19T00:42:05;22.20;55.80
3699;DHT22;1865;50.918;7.092;2022-08-19T00:44:31;22.20;55.80
3699;DHT22;1865;50.918;7.092;2022-08-19T00:46:58;22.20;55.90
3699;DHT22;1865;50.918;7.092;2022-08-19T00:49:35;22.20;55.50
3699;DHT22;1865;50.918;7.092;2022-08-19T00:52:06;22.10;55.70
3699;DHT22;1865;50.918;7.092;2022-08-19T00:54:38;22.10;56.00
3699;DHT22;1865;50.918;7.092;2022-08-19T00:57:07;22.00;56.10
3699;DHT22;1865;50.918;7.092;2022-08-19T00:59:35;22.00;56.10
3699;DHT22;1865;50.918;7.092;2022-08-19T01:02:01;22.10;55.80
3699;DHT22;1865;50.918;7.092;2022-08-19T01:04:27;21.90;56.10
3699;DHT22;1865;50.918;7.092;2022-08-19T01:06:53;21.90;56.20
3699;DHT22;1865;50.918;7.092;2022-08-19T01:09:18;21.90;56.30
3699;DHT22;1865;50.918;7.092;2022-08-19T01:11:44;21.90;56.40
3699;DHT22;1865;50.918;7.092;2022-08-19T01:14:11;21.80;56.30
3699;DHT22;1865;50.918;7.092;2022-08-19T01:16:39;21.70;56.80
3699;DHT22;1865;50.918;7.092;2022-08-19T01:19:15;21.70;56.90
3699;DHT22;1865;50.918;7.092;2022-08-19T01:21:52;21.60;57.10
3699;DHT22;1865;50.918;7.092;2022-08-19T01:24:20;21.70;57.30
3699;DHT22;1865;50.918;7.092;2022-08-19T01:26:48;21.70;57.00
3699;DHT22;1865;50.918;7.092;2022-08-19T01:29:17;21.60;56.90
3699;DHT22;1865;50.918;7.092;2022-08-19T01:31:43;21.60;57.20
3699;DHT22;1865;50.918;7.092;2022-08-19T01:34:09;21.60;57.20
3699;DHT22;1865;50.918;7.092;2022-08-19T01:36:42;21.60;57.10
3699;DHT22;1865;50.918;7.092;2022-08-19T01:39:15;21.60;56.90
3699;DHT22;1865;50.918;7.092;2022-08-19T01:41:41;21.50;57.20
3699;DHT22;1865;50.918;7.092;2022-08-19T01:44:08;21.50;57.00
3699;DHT22;1865;50.918;7.092;2022-08-19T01:46:35;21.50;57.20
3699;DHT22;1865;50.918;7.092;2022-08-19T01:49:03;21.50;57.20
3699;DHT22;1865;50.918;7.092;2022-08-19T01:51:29;21.60;56.90
3699;DHT22;1865;50.918;7.092;2022-08-19T01:53:56;21.60;56.80
3699;DHT22;1865;50.918;7.092;2022-08-19T01:56:23;21.60;56.90
3699;DHT22;1865;50.918;7.092;2022-08-19T01:58:55;21.50;57.20
3699;DHT22;1865;50.918;7.092;2022-08-19T02:01:23;21.50;57.00
3699;DHT22;1865;50.918;7.092;2022-08-19T02:03:48;21.50;56.90
3699;DHT22;1865;50.918;7.092;2022-08-19T02:06:14;21.50;57.10
3699;DHT22;1865;50.918;7.092;2022-08-19T02:08:42;21.50;57.30
3699;DHT22;1865;50.918;7.092;2022-08-19T02:11:07;21.50;57.10
3699;DHT22;1865;50.918;7.092;2022-08-19T02:13:34;21.50;57.00
3699;DHT22;1865;50.918;7.092;2022-08-19T02:15:59;21.40;57.20
3699;DHT22;1865;50.918;7.092;2022-08-19T02:18:25;21.50;56.90
3699;DHT22;1865;50.918;7.092;2022-08-19T02:20:52;21.40;57.00
3699;DHT22;1865;50.918;7.092;2022-08-19T02:23:19;21.40;57.20
3699;DHT22;1865;50.918;7.092;2022-08-19T02:25:46;21.40;57.20
3699;DHT22;1865;50.918;7.092;2022-08-19T02:28:14;21.40;57.40
3699;DHT22;1865;50.918;7.092;2022-08-19T02:30:42;21.40;57.40
3699;DHT22;1865;50.918;7.092;2022-08-19T02:33:08;21.30;57.90
3699;DHT22;1865;50.918;7.092;2022-08-19T02:35:33;21.20;57.80
3699;DHT22;1865;50.918;7.092;2022-08-19T02:37:59;21.20;58.40
3699;DHT22;1865;50.918;7.092;2022-08-19T02:41:05;21.30;57.90
3699;DHT22;1865;50.918;7.092;2022-08-19T02:43:33;21.30;57.80
3699;DHT22;1865;50.918;7.092;2022-08-19T02:46:11;21.30;57.60
3699;DHT22;1865;50.918;7.092;2022-08-19T02:48:37;21.30;57.50
3699;DHT22;1865;50.918;7.092;2022-08-19T02:51:02;21.30;57.50
3699;DHT22;1865;50.918;7.092;2022-08-19T02:53:29;21.30;57.70
3699;DHT22;1865;50.918;7.092;2022-08-19T02:55:55;21.20;57.60
3699;DHT22;1865;50.918;7.092;2022-08-19T02:58:25;21.20;57.80
3699;DHT22;1865;50.918;7.092;2022-08-19T03:00:54;21.20;57.60
3699;DHT22;1865;50.918;7.092;2022-08-19T03:03:20;21.20;57.70
3699;DHT22;1865;50.918;7.092;2022-08-19T03:05:48;21.20;57.70
3699;DHT22;1865;50.918;7.092;2022-08-19T03:08:13;21.20;57.70
3699;DHT22;1865;50.918;7.092;2022-08-19T03:10:47;21.20;57.50
3699;DHT22;1865;50.918;7.092;2022-08-19T03:13:15;21.20;57.50
3699;DHT22;1865;50.918;7.092;2022-08-19T03:15:43;21.20;57.80
3699;DHT22;1865;50.918;7.092;2022-08-19T03:18:10;21.20;57.70
3699;DHT22;1865;50.918;7.092;2022-08-19T03:20:41;21.10;57.80
3699;DHT22;1865;50.918;7.092;2022-08-19T03:23:08;21.10;57.90
3699;DHT22;1865;50.918;7.092;2022-08-19T03:25:38;21.10;58.10
3699;DHT22;1865;50.918;7.092;2022-08-19T03:28:04;21.10;57.80
3699;DHT22;1865;50.918;7.092;2022-08-19T03:30:29;21.00;58.10
3699;DHT22;1865;50.918;7.092;2022-08-19T03:32:55;21.00;58.10
3699;DHT22;1865;50.918;7.092;2022-08-19T03:35:20;20.90;58.60
3699;DHT22;1865;50.918;7.092;2022-08-19T03:37:46;20.90;58.60
3699;DHT22;1865;50.918;7.092;2022-08-19T03:40:11;21.00;58.40
3699;DHT22;1865;50.918;7.092;2022-08-19T03:42:37;21.00;58.00
3699;DHT22;1865;50.918;7.092;2022-08-19T03:45:07;21.00;58.10
3699;DHT22;1865;50.918;7.092;2022-08-19T03:47:36;21.10;58.00
3699;DHT22;1865;50.918;7.092;2022-08-19T03:50:02;21.10;57.90
3699;DHT22;1865;50.918;7.092;2022-08-19T03:52:30;21.00;57.90
3699;DHT22;1865;50.918;7.092;2022-08-19T03:54:57;21.00;57.90
3699;DHT22;1865;50.918;7.092;2022-08-19T03:57:25;20.90;58.20
3699;DHT22;1865;50.918;7.092;2022-08-19T03:59:52;20.80;58.40
3699;DHT22;1865;50.918;7.092;2022-08-19T04:02:19;20.80;58.50
3699;DHT22;1865;50.918;7.092;2022-08-19T04:04:45;20.90;58.60
3699;DHT22;1865;50.918;7.092;2022-08-19T04:07:12;20.90;58.40
3699;DHT22;1865;50.918;7.092;2022-08-19T04:09:41;20.90;58.20
3699;DHT22;1865;50.918;7.092;2022-08-19T04:12:07;21.00;58.00
3699;DHT22;1865;50.918;7.092;2022-08-19T04:14:34;21.00;57.80
3699;DHT22;1865;50.918;7.092;2022-08-19T04:17:01;21.00;58.00
3699;DHT22;1865;50.918;7.092;2022-08-19T04:19:30;21.00;57.90
3699;DHT22;1865;50.918;7.092;2022-08-19T04:21:56;21.00;57.90
3699;DHT22;1865;50.918;7.092;2022-08-19T04:24:22;20.90;57.80
3699;DHT22;1865;50.918;7.092;2022-08-19T04:26:48;20.90;57.90
3699;DHT22;1865;50.918;7.092;2022-08-19T04:29:17;20.80;58.00
3699;DHT22;1865;50.918;7.092;2022-08-19T04:31:45;20.80;58.10
3699;DHT22;1865;50.918;7.092;2022-08-19T04:34:13;20.70;58.30
3699;DHT22;1865;50.918;7.092;2022-08-19T04:36:40;20.70;58.60
3699;DHT22;1865;50.918;7.092;2022-08-19T04:39:18;20.70;58.70
3699;DHT22;1865;50.918;7.092;2022-08-19T04:41:44;20.70;59.00
3699;DHT22;1865;50.918;7.092;2022-08-19T04:44:32;20.80;58.60
3699;DHT22;1865;50.918;7.092;2022-08-19T04:46:59;20.70;58.60
3699;DHT22;1865;50.918;7.092;2022-08-19T04:49:25;20.70;59.00
3699;DHT22;1865;50.918;7.092;2022-08-19T04:51:53;20.70;59.00
3699;DHT22;1865;50.918;7.092;2022-08-19T04:54:24;20.80;58.80
3699;DHT22;1865;50.918;7.092;2022-08-19T04:56:52;20.90;58.40
3699;DHT22;1865;50.918;7.092;2022-08-19T04:59:19;21.00;58.20
3699;DHT22;1865;50.918;7.092;2022-08-19T05:01:46;21.00;58.10
3699;DHT22;1865;50.918;7.092;2022-08-19T05:04:18;21.10;58.00
3699;DHT22;1865;50.918;7.092;2022-08-19T05:06:45;21.10;57.70
3699;DHT22;1865;50.918;7.092;2022-08-19T05:09:10;21.10;57.60
3699;DHT22;1865;50.918;7.092;2022-08-19T05:11:37;21.10;57.60
3699;DHT22;1865;50.918;7.092;2022-08-19T05:14:04;21.10;57.60
3699;DHT22;1865;50.918;7.092;2022-08-19T05:16:30;21.20;57.20
3699;DHT22;1865;50.918;7.092;2022-08-19T05:18:56;21.20;57.10
3699;DHT22;1865;50.918;7.092;2022-08-19T05:21:40;21.20;57.10
3699;DHT22;1865;50.918;7.092;2022-08-19T05:24:27;21.20;56.90
3699;DHT22;1865;50.918;7.092;2022-08-19T05:26:54;21.20;57.10
3699;DHT22;1865;50.918;7.092;2022-08-19T05:29:23;21.30;57.40
3699;DHT22;1865;50.918;7.092;2022-08-19T05:31:49;21.40;57.20
3699;DHT22;1865;50.918;7.092;2022-08-19T05:34:16;21.40;57.00
3699;DHT22;1865;50.918;7.092;2022-08-19T05:36:44;21.40;57.30
3699;DHT22;1865;50.918;7.092;2022-08-19T05:39:14;21.40;57.40
3699;DHT22;1865;50.918;7.092;2022-08-19T05:41:45;21.40;57.40
3699;DHT22;1865;50.918;7.092;2022-08-19T05:44:13;21.30;57.70
3699;DHT22;1865;50.918;7.092;2022-08-19T05:46:39;21.40;57.40
3699;DHT22;1865;50.918;7.092;2022-08-19T05:49:06;21.40;57.50
3699;DHT22;1865;50.918;7.092;2022-08-19T05:51:36;21.50;57.60
3699;DHT22;1865;50.918;7.092;2022-08-19T05:54:03;21.50;57.70
3699;DHT22;1865;50.918;7.092;2022-08-19T05:56:29;21.50;57.80
3699;DHT22;1865;50.918;7.092;2022-08-19T05:58:58;21.60;57.70
3699;DHT22;1865;50.918;7.092;2022-08-19T06:01:25;21.70;57.70
3699;DHT22;1865;50.918;7.092;2022-08-19T06:03:51;21.70;57.60
3699;DHT22;1865;50.918;7.092;2022-08-19T06:06:18;21.80;57.60
3699;DHT22;1865;50.918;7.092;2022-08-19T06:08:45;21.80;57.60
3699;DHT22;1865;50.918;7.092;2022-08-19T06:11:39;21.90;57.70
3699;DHT22;1865;50.918;7.092;2022-08-19T06:14:09;22.00;57.30
3699;DHT22;1865;50.918;7.092;2022-08-19T06:16:39;22.00;57.50
3699;DHT22;1865;50.918;7.092;2022-08-19T06:19:09;22.10;57.30
3699;DHT22;1865;50.918;7.092;2022-08-19T06:21:36;22.20;57.40
3699;DHT22;1865;50.918;7.092;2022-08-19T06:24:07;22.30;57.10
3699;DHT22;1865;50.918;7.092;2022-08-19T06:26:34;22.30;56.80
3699;DHT22;1865;50.918;7.092;2022-08-19T06:29:01;22.40;56.40
3699;DHT22;1865;50.918;7.092;2022-08-19T06:31:29;22.50;56.40
3699;DHT22;1865;50.918;7.092;2022-08-19T06:33:56;22.60;55.90
3699;DHT22;1865;50.918;7.092;2022-08-19T06:36:27;22.70;55.70
3699;DHT22;1865;50.918;7.092;2022-08-19T06:38:58;22.80;55.60
3699;DHT22;1865;50.918;7.092;2022-08-19T06:41:28;22.80;55.50
3699;DHT22;1865;50.918;7.092;2022-08-19T06:43:55;22.90;55.50
3699;DHT22;1865;50.918;7.092;2022-08-19T06:46:21;23.00;55.30
3699;DHT22;1865;50.918;7.092;2022-08-19T06:48:47;23.00;55.20
3699;DHT22;1865;50.918;7.092;2022-08-19T06:51:16;23.00;55.60
3699;DHT22;1865;50.918;7.092;2022-08-19T06:53:44;23.10;55.60
3699;DHT22;1865;50.918;7.092;2022-08-19T06:56:13;23.10;55.30
3699;DHT22;1865;50.918;7.092;2022-08-19T06:58:39;23.10;55.50
3699;DHT22;1865;50.918;7.092;2022-08-19T07:01:06;23.10;55.70
3699;DHT22;1865;50.918;7.092;2022-08-19T07:03:34;23.30;55.60
3699;DHT22;1865;50.918;7.092;2022-08-19T07:06:22;23.40;56.00
3699;DHT22;1865;50.918;7.092;2022-08-19T07:08:48;23.50;55.50
3699;DHT22;1865;50.918;7.092;2022-08-19T07:11:16;23.60;55.50
3699;DHT22;1865;50.918;7.092;2022-08-19T07:13:45;23.70;55.20
3699;DHT22;1865;50.918;7.092;2022-08-19T07:16:16;23.90;55.00
3699;DHT22;1865;50.918;7.092;2022-08-19T07:18:44;24.00;54.70
3699;DHT22;1865;50.918;7.092;2022-08-19T07:21:12;24.00;55.00
3699;DHT22;1865;50.918;7.092;2022-08-19T07:23:38;24.00;55.10
3699;DHT22;1865;50.918;7.092;2022-08-19T07:26:17;24.10;55.10
3699;DHT22;1865;50.918;7.092;2022-08-19T07:28:44;24.20;55.20
3699;DHT22;1865;50.918;7.092;2022-08-19T07:31:16;24.40;54.80
3699;DHT22;1865;50.918;7.092;2022-08-19T07:33:44;24.50;55.10
3699;DHT22;1865;50.918;7.092;2022-08-19T07:36:13;24.60;55.40
3699;DHT22;1865;50.918;7.092;2022-08-19T07:38:42;24.70;55.30
3699;DHT22;1865;50.918;7.092;2022-08-19T07:41:10;24.80;55.10
3699;DHT22;1865;50.918;7.092;2022-08-19T07:43:36;24.90;55.00
3699;DHT22;1865;50.918;7.092;2022-08-19T07:46:02;24.90;54.80
3699;DHT22;1865;50.918;7.092;2022-08-19T07:48:28;24.90;55.20
3699;DHT22;1865;50.918;7.092;2022-08-19T07:50:59;24.90;55.20
3699;DHT22;1865;50.918;7.092;2022-08-19T07:53:28;25.00;55.00
3699;DHT22;1865;50.918;7.092;2022-08-19T07:55:54;25.10;54.60
3699;DHT22;1865;50.918;7.092;2022-08-19T07:58:21;25.20;54.50
3699;DHT22;1865;50.918;7.092;2022-08-19T08:00:49;25.20;54.20
3699;DHT22;1865;50.918;7.092;2022-08-19T08:03:19;25.40;54.00
3699;DHT22;1865;50.918;7.092;2022-08-19T08:05:46;25.50;53.60
3699;DHT22;1865;50.918;7.092;2022-08-19T08:08:31;25.60;53.00
3699;DHT22;1865;50.918;7.092;2022-08-19T08:11:19;25.60;53.00
3699;DHT22;1865;50.918;7.092;2022-08-19T08:13:46;25.70;52.90
3699;DHT22;1865;50.918;7.092;2022-08-19T08:16:13;25.70;52.50
3699;DHT22;1865;50.918;7.092;2022-08-19T08:18:39;25.70;52.10
3699;DHT22;1865;50.918;7.092;2022-08-19T08:21:07;25.60;52.50
3699;DHT22;1865;50.918;7.092;2022-08-19T08:23:34;25.60;51.60
3699;DHT22;1865;50.918;7.092;2022-08-19T08:26:00;25.60;51.80
3699;DHT22;1865;50.918;7.092;2022-08-19T08:28:27;25.50;51.40
3699;DHT22;1865;50.918;7.092;2022-08-19T08:30:52;25.50;51.40
3699;DHT22;1865;50.918;7.092;2022-08-19T08:33:21;25.50;50.90
3699;DHT22;1865;50.918;7.092;2022-08-19T08:35:47;25.50;50.30
3699;DHT22;1865;50.918;7.092;2022-08-19T08:38:14;25.40;50.60
3699;DHT22;1865;50.918;7.092;2022-08-19T08:40:58;25.50;50.70
3699;DHT22;1865;50.918;7.092;2022-08-19T08:43:33;25.60;50.50
3699;DHT22;1865;50.918;7.092;2022-08-19T08:46:13;25.70;50.20
3699;DHT22;1865;50.918;7.092;2022-08-19T08:49:02;25.80;50.30
3699;DHT22;1865;50.918;7.092;2022-08-19T08:51:46;25.90;49.90
3699;DHT22;1865;50.918;7.092;2022-08-19T08:54:15;26.00;50.30
3699;DHT22;1865;50.918;7.092;2022-08-19T08:56:45;26.10;50.30
3699;DHT22;1865;50.918;7.092;2022-08-19T08:59:20;26.20;49.80
3699;DHT22;1865;50.918;7.092;2022-08-19T09:01:48;26.40;49.60
3699;DHT22;1865;50.918;7.092;2022-08-19T09:04:15;26.50;49.40
3699;DHT22;1865;50.918;7.092;2022-08-19T09:09:36;26.70;48.60
3699;DHT22;1865;50.918;7.092;2022-08-19T09:14:37;26.70;48.50
3699;DHT22;1865;50.918;7.092;2022-08-19T09:17:08;26.80;48.20
3699;DHT22;1865;50.918;7.092;2022-08-19T09:19:36;26.80;47.20
3699;DHT22;1865;50.918;7.092;2022-08-19T09:22:12;26.80;47.90
3699;DHT22;1865;50.918;7.092;2022-08-19T09:24:38;26.80;46.90
3699;DHT22;1865;50.918;7.092;2022-08-19T09:27:04;26.70;48.20
3699;DHT22;1865;50.918;7.092;2022-08-19T09:29:29;26.60;48.60
3699;DHT22;1865;50.918;7.092;2022-08-19T09:31:55;26.80;48.20
3699;DHT22;1865;50.918;7.092;2022-08-19T09:34:21;27.00;48.20
3699;DHT22;1865;50.918;7.092;2022-08-19T09:36:49;27.10;47.60
3699;DHT22;1865;50.918;7.092;2022-08-19T09:39:21;27.20;47.80
3699;DHT22;1865;50.918;7.092;2022-08-19T09:41:46;27.30;48.00
3699;DHT22;1865;50.918;7.092;2022-08-19T09:44:12;27.40;46.60
3699;DHT22;1865;50.918;7.092;2022-08-19T09:46:38;27.40;45.60
3699;DHT22;1865;50.918;7.092;2022-08-19T09:49:07;27.40;44.80
3699;DHT22;1865;50.918;7.092;2022-08-19T09:51:32;27.50;45.80
3699;DHT22;1865;50.918;7.092;2022-08-19T09:54:01;27.60;45.50
3699;DHT22;1865;50.918;7.092;2022-08-19T09:56:28;27.70;45.10
3699;DHT22;1865;50.918;7.092;2022-08-19T09:58:54;27.60;45.10
3699;DHT22;1865;50.918;7.092;2022-08-19T10:01:28;27.70;45.10
3699;DHT22;1865;50.918;7.092;2022-08-19T10:03:56;27.70;45.20
3699;DHT22;1865;50.918;7.092;2022-08-19T10:06:26;27.80;44.70
3699;DHT22;1865;50.918;7.092;2022-08-19T10:08:58;27.80;44.40
3699;DHT22;1865;50.918;7.092;2022-08-19T10:11:25;27.80;43.80
3699;DHT22;1865;50.918;7.092;2022-08-19T10:13:51;27.70;43.90
3699;DHT22;1865;50.918;7.092;2022-08-19T10:16:21;27.70;42.50
3699;DHT22;1865;50.918;7.092;2022-08-19T10:18:48;27.70;43.10
3699;DHT22;1865;50.918;7.092;2022-08-19T10:21:23;27.80;43.00
3699;DHT22;1865;50.918;7.092;2022-08-19T10:23:50;28.00;42.50
3699;DHT22;1865;50.918;7.092;2022-08-19T10:26:27;28.00;42.80
3699;DHT22;1865;50.918;7.092;2022-08-19T10:28:53;28.10;42.00
3699;DHT22;1865;50.918;7.092;2022-08-19T10:31:23;28.30;41.50
3699;DHT22;1865;50.918;7.092;2022-08-19T10:33:50;28.40;42.40
3699;DHT22;1865;50.918;7.092;2022-08-19T10:36:21;28.20;40.70
3699;DHT22;1865;50.918;7.092;2022-08-19T10:38:50;28.20;40.80
3699;DHT22;1865;50.918;7.092;2022-08-19T10:41:20;28.30;40.90
3699;DHT22;1865;50.918;7.092;2022-08-19T10:43:47;28.30;40.70
3699;DHT22;1865;50.918;7.092;2022-08-19T10:46:17;28.40;41.00
3699;DHT22;1865;50.918;7.092;2022-08-19T10:48:44;28.50;40.10
3699;DHT22;1865;50.918;7.092;2022-08-19T10:51:10;28.60;39.70
3699;DHT22;1865;50.918;7.092;2022-08-19T10:53:56;28.50;39.70
3699;DHT22;1865;50.918;7.092;2022-08-19T10:56:33;28.50;39.60
3699;DHT22;1865;50.918;7.092;2022-08-19T10:59:22;28.70;39.50
3699;DHT22;1865;50.918;7.092;2022-08-19T11:01:48;28.80;38.70
3699;DHT22;1865;50.918;7.092;2022-08-19T11:04:14;28.90;38.80
3699;DHT22;1865;50.918;7.092;2022-08-19T11:06:46;28.90;38.80
3699;DHT22;1865;50.918;7.092;2022-08-19T11:09:17;29.00;39.00
3699;DHT22;1865;50.918;7.092;2022-08-19T11:11:43;29.00;39.10
3699;DHT22;1865;50.918;7.092;2022-08-19T11:14:14;29.10;38.90
3699;DHT22;1865;50.918;7.092;2022-08-19T11:16:41;29.10;38.90
3699;DHT22;1865;50.918;7.092;2022-08-19T11:19:09;29.20;38.80
3699;DHT22;1865;50.918;7.092;2022-08-19T11:21:40;29.20;38.30
3699;DHT22;1865;50.918;7.092;2022-08-19T11:24:09;29.10;38.10
3699;DHT22;1865;50.918;7.092;2022-08-19T11:26:37;29.10;39.10
3699;DHT22;1865;50.918;7.092;2022-08-19T11:29:04;29.10;38.60
3699;DHT22;1865;50.918;7.092;2022-08-19T11:31:35;29.10;38.00
3699;DHT22;1865;50.918;7.092;2022-08-19T11:34:04;29.40;38.30
3699;DHT22;1865;50.918;7.092;2022-08-19T11:36:30;29.70;36.90
3699;DHT22;1865;50.918;7.092;2022-08-19T11:38:59;29.80;37.20
3699;DHT22;1865;50.918;7.092;2022-08-19T11:41:25;30.00;37.00
3699;DHT22;1865;50.918;7.092;2022-08-19T11:43:52;30.10;37.10
3699;DHT22;1865;50.918;7.092;2022-08-19T11:46:20;30.10;37.10
3699;DHT22;1865;50.918;7.092;2022-08-19T11:48:46;30.30;36.60
3699;DHT22;1865;50.918;7.092;2022-08-19T11:51:15;30.20;36.50
3699;DHT22;1865;50.918;7.092;2022-08-19T11:53:41;30.10;36.80
3699;DHT22;1865;50.918;7.092;2022-08-19T11:56:09;30.10;36.30
3699;DHT22;1865;50.918;7.092;2022-08-19T11:58:39;30.10;36.20
3699;DHT22;1865;50.918;7.092;2022-08-19T12:01:13;30.00;35.70
3699;DHT22;1865;50.918;7.092;2022-08-19T12:03:50;30.10;35.90
3699;DHT22;1865;50.918;7.092;2022-08-19T12:06:50;29.90;35.60
3699;DHT22;1865;50.918;7.092;2022-08-19T12:09:09;29.80;35.80
3699;DHT22;1865;50.918;7.092;2022-08-19T12:11:36;29.80;36.00
3699;DHT22;1865;50.918;7.092;2022-08-19T12:14:02;29.80;36.20
3699;DHT22;1865;50.918;7.092;2022-08-19T12:16:29;29.80;35.80
3699;DHT22;1865;50.918;7.092;2022-08-19T12:18:56;29.90;35.40
3699;DHT22;1865;50.918;7.092;2022-08-19T12:21:31;30.10;35.70
3699;DHT22;1865;50.918;7.092;2022-08-19T12:23:58;29.90;35.10
3699;DHT22;1865;50.918;7.092;2022-08-19T12:26:27;29.90;35.40
3699;DHT22;1865;50.918;7.092;2022-08-19T12:28:53;29.80;35.90
3699;DHT22;1865;50.918;7.092;2022-08-19T12:31:18;30.00;35.10
3699;DHT22;1865;50.918;7.092;2022-08-19T12:33:45;29.90;34.20
3699;DHT22;1865;50.918;7.092;2022-08-19T12:36:13;30.00;34.60
3699;DHT22;1865;50.918;7.092;2022-08-19T12:38:40;29.80;34.70
3699;DHT22;1865;50.918;7.092;2022-08-19T12:41:09;30.00;34.90
3699;DHT22;1865;50.918;7.092;2022-08-19T12:43:36;30.20;34.60
3699;DHT22;1865;50.918;7.092;2022-08-19T12:46:02;30.40;34.10
3699;DHT22;1865;50.918;7.092;2022-08-19T12:48:30;30.60;34.20
3699;DHT22;1865;50.918;7.092;2022-08-19T12:50:55;30.70;34.20
3699;DHT22;1865;50.918;7.092;2022-08-19T12:53:21;30.80;33.10
3699;DHT22;1865;50.918;7.092;2022-08-19T12:55:47;31.20;32.00
3699;DHT22;1865;50.918;7.092;2022-08-19T12:58:12;31.90;31.10
3699;DHT22;1865;50.918;7.092;2022-08-19T13:00:39;32.60;29.20
3699;DHT22;1865;50.918;7.092;2022-08-19T13:03:04;33.40;29.10
3699;DHT22;1865;50.918;7.092;2022-08-19T13:05:33;33.60;29.70
3699;DHT22;1865;50.918;7.092;2022-08-19T13:07:59;34.10;27.80
3699;DHT22;1865;50.918;7.092;2022-08-19T13:10:32;35.00;26.10
3699;DHT22;1865;50.918;7.092;2022-08-19T13:13:03;36.60;24.70
3699;DHT22;1865;50.918;7.092;2022-08-19T13:15:33;36.60;25.30
3699;DHT22;1865;50.918;7.092;2022-08-19T13:18:02;36.80;24.30
3699;DHT22;1865;50.918;7.092;2022-08-19T13:20:28;36.60;24.50
3699;DHT22;1865;50.918;7.092;2022-08-19T13:22:54;36.20;24.30
3699;DHT22;1865;50.918;7.092;2022-08-19T13:25:20;36.10;25.70
3699;DHT22;1865;50.918;7.092;2022-08-19T13:27:47;36.90;24.60
3699;DHT22;1865;50.918;7.092;2022-08-19T13:30:17;37.20;24.10
3699;DHT22;1865;50.918;7.092;2022-08-19T13:33:09;36.90;23.60
3699;DHT22;1865;50.918;7.092;2022-08-19T13:35:48;36.70;24.50
3699;DHT22;1865;50.918;7.092;2022-08-19T13:38:20;37.50;24.10
3699;DHT22;1865;50.918;7.092;2022-08-19T13:40:46;37.60;24.70
3699;DHT22;1865;50.918;7.092;2022-08-19T13:43:12;38.40;23.50
3699;DHT22;1865;50.918;7.092;2022-08-19T13:45:39;38.90;22.70
3699;DHT22;1865;50.918;7.092;2022-08-19T13:48:06;38.90;22.20
3699;DHT22;1865;50.918;7.092;2022-08-19T13:50:35;38.40;23.10
3699;DHT22;1865;50.918;7.092;2022-08-19T13:53:02;37.70;23.70
3699;DHT22;1865;50.918;7.092;2022-08-19T13:55:29;36.90;23.70
3699;DHT22;1865;50.918;7.092;2022-08-19T13:57:58;36.20;24.60
3699;DHT22;1865;50.918;7.092;2022-08-19T14:00:27;35.60;25.50
3699;DHT22;1865;50.918;7.092;2022-08-19T14:02:55;34.90;25.20
3699;DHT22;1865;50.918;7.092;2022-08-19T14:05:25;34.30;26.10
3699;DHT22;1865;50.918;7.092;2022-08-19T14:07:51;34.30;26.50
3699;DHT22;1865;50.918;7.092;2022-08-19T14:10:18;34.10;26.50
3699;DHT22;1865;50.918;7.092;2022-08-19T14:12:44;33.90;26.10
3699;DHT22;1865;50.918;7.092;2022-08-19T14:15:11;33.70;26.30
3699;DHT22;1865;50.918;7.092;2022-08-19T14:17:38;33.20;26.40
3699;DHT22;1865;50.918;7.092;2022-08-19T14:20:07;33.10;27.10
3699;DHT22;1865;50.918;7.092;2022-08-19T14:22:39;33.00;26.80
3699;DHT22;1865;50.918;7.092;2022-08-19T14:25:09;32.80;26.50
3699;DHT22;1865;50.918;7.092;2022-08-19T14:27:42;32.70;26.90
3699;DHT22;1865;50.918;7.092;2022-08-19T14:30:10;32.50;27.70
3699;DHT22;1865;50.918;7.092;2022-08-19T14:32:35;32.30;27.60
3699;DHT22;1865;50.918;7.092;2022-08-19T14:35:02;32.00;28.60
3699;DHT22;1865;50.918;7.092;2022-08-19T14:37:28;31.70;28.70
3699;DHT22;1865;50.918;7.092;2022-08-19T14:39:54;31.70;27.90
3699;DHT22;1865;50.918;7.092;2022-08-19T14:42:21;31.50;28.30
3699;DHT22;1865;50.918;7.092;2022-08-19T14:44:47;31.40;28.80
3699;DHT22;1865;50.918;7.092;2022-08-19T14:47:12;31.60;29.10
3699;DHT22;1865;50.918;7.092;2022-08-19T14:49:38;31.50;28.40
3699;DHT22;1865;50.918;7.092;2022-08-19T14:52:05;31.30;28.80
3699;DHT22;1865;50.918;7.092;2022-08-19T14:54:31;31.30;28.70
3699;DHT22;1865;50.918;7.092;2022-08-19T14:56:56;31.40;28.70
3699;DHT22;1865;50.918;7.092;2022-08-19T14:59:24;31.30;28.90
3699;DHT22;1865;50.918;7.092;2022-08-19T15:01:49;31.40;29.40
3699;DHT22;1865;50.918;7.092;2022-08-19T15:04:15;31.40;29.10
3699;DHT22;1865;50.918;7.092;2022-08-19T15:06:41;31.40;29.70
3699;DHT22;1865;50.918;7.092;2022-08-19T15:09:08;31.40;29.50
3699;DHT22;1865;50.918;7.092;2022-08-19T15:11:35;31.30;29.80
3699;DHT22;1865;50.918;7.092;2022-08-19T15:14:01;31.30;30.20
3699;DHT22;1865;50.918;7.092;2022-08-19T15:16:27;31.20;29.80
3699;DHT22;1865;50.918;7.092;2022-08-19T15:18:56;30.90;29.10
3699;DHT22;1865;50.918;7.092;2022-08-19T15:21:23;31.00;29.40
3699;DHT22;1865;50.918;7.092;2022-08-19T15:23:49;31.20;29.50
3699;DHT22;1865;50.918;7.092;2022-08-19T15:26:17;31.40;29.10
3699;DHT22;1865;50.918;7.092;2022-08-19T15:28:43;31.40;29.10
3699;DHT22;1865;50.918;7.092;2022-08-19T15:31:11;31.40;29.00
3699;DHT22;1865;50.918;7.092;2022-08-19T15:33:38;31.30;29.00
3699;DHT22;1865;50.918;7.092;2022-08-19T15:36:09;31.30;29.20
3699;DHT22;1865;50.918;7.092;2022-08-19T15:38:37;31.30;29.10
3699;DHT22;1865;50.918;7.092;2022-08-19T15:41:19;31.30;28.90
3699;DHT22;1865;50.918;7.092;2022-08-19T15:43:52;31.40;28.70
3699;DHT22;1865;50.918;7.092;2022-08-19T15:46:19;31.30;28.40
3699;DHT22;1865;50.918;7.092;2022-08-19T15:48:47;31.50;28.50
3699;DHT22;1865;50.918;7.092;2022-08-19T15:51:12;31.60;27.50
3699;DHT22;1865;50.918;7.092;2022-08-19T15:53:39;31.50;27.60
3699;DHT22;1865;50.918;7.092;2022-08-19T15:56:06;31.50;28.20
3699;DHT22;1865;50.918;7.092;2022-08-19T15:58:33;31.50;27.90
3699;DHT22;1865;50.918;7.092;2022-08-19T16:01:17;31.40;28.20
3699;DHT22;1865;50.918;7.092;2022-08-19T16:03:59;31.40;28.30
3699;DHT22;1865;50.918;7.092;2022-08-19T16:06:49;31.30;27.90
3699;DHT22;1865;50.918;7.092;2022-08-19T16:09:17;31.30;28.00
3699;DHT22;1865;50.918;7.092;2022-08-19T16:11:44;31.30;27.90
3699;DHT22;1865;50.918;7.092;2022-08-19T16:14:10;31.20;28.50
3699;DHT22;1865;50.918;7.092;2022-08-19T16:16:37;31.00;28.70